Time;durP1;ratioP1;P1;durP2;ratioP2;P2;SDS_P1;SDS_P2;PMS_P1;PMS_P2;Temp;Humidity;BMP_temperature;BMP_pressure;BME280_temperature;BME280_humidity;BME280_pressure;Samples;Min_cycle;Max_cycle;Signal;HPM_P1;HPM_P2
2022/05/10 00:00:05;;;;;;;17.25;6.28;;;;;;;;;;4996733;28;20058;-57
2022/05/10 00:02:39;;;;;;;24.20;6.53;;;;;;;;;;4996428;28;20058;-57
2022/05/10 00:05:06;;;;;;;16.88;6.28;;;;;;;;;;4996214;28;20050;-58
2022/05/10 00:07:34;;;;;;;21.33;6.28;;;;;;;;;;4996727;28;20406;-58
2022/05/10 00:10:01;;;;;;;26.80;7.18;;;;;;;;;;4993556;28;20101;-59
2022/05/10 00:12:28;;;;;;;26.15;6.85;;;;;;;;;;4995777;28;20084;-58
2022/05/10 00:14:54;;;;;;;26.40;6.50;;;;;;;;;;4995986;28;20502;-57
2022/05/10 00:17:23;;;;;;;28.35;7.22;;;;;;;;;;4996433;28;20410;-57
2022/05/10 00:19:52;;;;;;;18.52;5.63;;;;;;;;;;4996610;28;20395;-58
2022/05/10 00:22:18;;;;;;;20.23;5.47;;;;;;;;;;4995463;28;20049;-58
2022/05/10 00:24:44;;;;;;;14.73;5.43;;;;;;;;;;4993501;28;20030;-58
2022/05/10 00:27:11;;;;;;;12.73;4.57;;;;;;;;;;4996237;28;20046;-58
2022/05/10 00:29:37;;;;;;;14.00;5.00;;;;;;;;;;4996728;28;20070;-58
2022/05/10 00:32:05;;;;;;;19.88;5.40;;;;;;;;;;4995929;28;20069;-58
2022/05/10 00:34:34;;;;;;;20.67;5.30;;;;;;;;;;4996215;28;20096;-58
2022/05/10 00:37:01;;;;;;;22.88;7.82;;;;;;;;;;4993262;28;20125;-57
2022/05/10 00:39:29;;;;;;;17.48;5.00;;;;;;;;;;4995084;28;20380;-57
2022/05/10 00:41:58;;;;;;;18.27;4.70;;;;;;;;;;4996029;28;20046;-57
2022/05/10 00:44:32;;;;;;;15.50;5.18;;;;;;;;;;4996153;28;20125;-57
2022/05/10 00:47:02;;;;;;;17.88;5.25;;;;;;;;;;4996151;28;20064;-57
2022/05/10 00:49:39;;;;;;;21.67;5.78;;;;;;;;;;4995910;28;20049;-57
2022/05/10 00:52:08;;;;;;;18.42;5.65;;;;;;;;;;4993447;28;20129;-58
2022/05/10 00:54:40;;;;;;;32.78;6.13;;;;;;;;;;4994770;28;20050;-58
2022/05/10 00:57:10;;;;;;;16.98;5.47;;;;;;;;;;4996323;28;20415;-57
2022/05/10 00:59:39;;;;;;;20.52;5.00;;;;;;;;;;4995811;28;20045;-58
2022/05/10 01:02:10;;;;;;;11.88;4.07;;;;;;;;;;4995895;28;20042;-58
2022/05/10 01:04:37;;;;;;;27.77;5.63;;;;;;;;;;4995919;28;21297;-58
2022/05/10 01:07:08;;;;;;;25.15;5.05;;;;;;;;;;4992933;28;20038;-58
2022/05/10 01:09:55;;;;;;;10.98;3.40;;;;;;;;;;4995004;28;20046;-58
2022/05/10 01:12:21;;;;;;;12.30;4.30;;;;;;;;;;4995374;28;20047;-58
2022/05/10 01:14:55;;;;;;;16.50;4.80;;;;;;;;;;4995946;28;20058;-59
2022/05/10 01:17:21;;;;;;;21.67;5.05;;;;;;;;;;4995771;28;20505;-58
2022/05/10 01:19:48;;;;;;;14.95;4.50;;;;;;;;;;4995820;28;20114;-58
2022/05/10 01:22:21;;;;;;;18.20;5.15;;;;;;;;;;4993870;28;20060;-58
2022/05/10 01:24:50;;;;;;;12.02;5.03;;;;;;;;;;4992988;28;20042;-57
2022/05/10 01:27:40;;;;;;;12.23;3.70;;;;;;;;;;4996741;28;20049;-57
2022/05/10 01:30:11;;;;;;;13.73;5.80;;;;;;;;;;4958491;28;20055;-58
2022/05/10 01:35:29;;;;;;;16.77;5.03;;;;;;;;;;4958527;28;20059;-58
2022/05/10 01:37:59;;;;;;;25.92;5.30;;;;;;;;;;4958198;28;20051;-58
2022/05/10 01:40:32;;;;;;;97.72;10.07;;;;;;;;;;4943081;28;20134;-58
2022/05/10 01:43:16;;;;;;;30.60;5.90;;;;;;;;;;4954797;28;20410;-58
2022/05/10 01:45:54;;;;;;;31.02;5.05;;;;;;;;;;4956171;28;20047;-58
2022/05/10 01:48:21;;;;;;;16.25;4.93;;;;;;;;;;4958076;28;20059;-58
2022/05/10 01:51:00;;;;;;;12.35;4.70;;;;;;;;;;4957819;28;20050;-58
2022/05/10 01:53:33;;;;;;;13.75;4.15;;;;;;;;;;4958141;28;20035;-58
2022/05/10 01:56:02;;;;;;;17.65;4.72;;;;;;;;;;4958361;28;20138;-58
2022/05/10 01:58:33;;;;;;;43.90;6.28;;;;;;;;;;4957541;28;20042;-58
2022/05/10 02:01:11;;;;;;;43.00;12.32;;;;;;;;;;4954950;28;20492;-57
2022/05/10 02:03:50;;;;;;;18.13;4.57;;;;;;;;;;4956051;28;20055;-58
2022/05/10 02:06:35;;;;;;;18.92;4.90;;;;;;;;;;4960249;28;20170;-58
2022/05/10 02:09:07;;;;;;;22.45;5.60;;;;;;;;;;4996675;28;20038;-57
2022/05/10 02:11:36;;;;;;;19.23;4.35;;;;;;;;;;4998526;28;20046;-57
2022/05/10 02:14:09;;;;;;;11.50;5.00;;;;;;;;;;4998773;28;20050;-57
2022/05/10 02:16:40;;;;;;;22.10;6.32;;;;;;;;;;4998777;28;20486;-57
2022/05/10 02:19:09;;;;;;;23.15;5.32;;;;;;;;;;4995494;28;20047;-57
2022/05/10 02:21:40;;;;;;;23.02;5.38;;;;;;;;;;4997278;28;20078;-57
2022/05/10 02:24:28;;;;;;;19.95;5.63;;;;;;;;;;4998932;28;20052;-58
2022/05/10 02:26:58;;;;;;;13.93;4.25;;;;;;;;;;4998564;28;20038;-58
2022/05/10 02:29:31;;;;;;;14.35;5.05;;;;;;;;;;4998294;28;20380;-57
2022/05/10 02:34:45;;;;;;;28.63;6.20;;;;;;;;;;4998174;28;20033;-58
2022/05/10 02:37:12;;;;;;;33.13;6.82;;;;;;;;;;4996111;28;20077;-57
2022/05/10 02:39:39;;;;;;;17.10;5.63;;;;;;;;;;4996463;28;20042;-58
2022/05/10 02:42:09;;;;;;;22.20;5.03;;;;;;;;;;4998258;28;20054;-58
2022/05/10 02:44:36;;;;;;;18.50;4.82;;;;;;;;;;4998088;28;20502;-58
2022/05/10 02:47:04;;;;;;;15.73;4.63;;;;;;;;;;4998055;28;20049;-58
2022/05/10 02:49:30;;;;;;;42.70;6.20;;;;;;;;;;4997608;28;20045;-58
2022/05/10 02:51:57;;;;;;;23.83;5.90;;;;;;;;;;4994484;28;20041;-57
2022/05/10 02:54:23;;;;;;;23.25;5.80;;;;;;;;;;4998257;28;20038;-57
2022/05/10 02:56:51;;;;;;;27.88;5.22;;;;;;;;;;4997879;28;20509;-57
2022/05/10 02:59:20;;;;;;;61.70;10.18;;;;;;;;;;4997847;28;20034;-58
2022/05/10 03:01:57;;;;;;;57.13;8.30;;;;;;;;;;4997946;28;20048;-58
2022/05/10 03:04:31;;;;;;;39.03;6.03;;;;;;;;;;4996756;28;20064;-57
2022/05/10 03:06:58;;;;;;;33.20;5.97;;;;;;;;;;4993993;28;20039;-58
2022/05/10 03:09:25;;;;;;;23.15;5.90;;;;;;;;;;4997738;28;20499;-58
2022/05/10 03:11:51;;;;;;;29.13;5.72;;;;;;;;;;4997305;28;20391;-57
2022/05/10 03:14:19;;;;;;;45.53;7.70;;;;;;;;;;4997562;28;20046;-58
2022/05/10 03:16:45;;;;;;;27.35;5.68;;;;;;;;;;4997496;28;20053;-58
2022/05/10 03:19:12;;;;;;;35.35;6.88;;;;;;;;;;4995069;28;20467;-57
2022/05/10 03:21:39;;;;;;;24.90;5.72;;;;;;;;;;4995913;28;20058;-58
2022/05/10 03:24:06;;;;;;;34.08;6.20;;;;;;;;;;4997255;28;20394;-58
2022/05/10 03:26:33;;;;;;;37.75;6.53;;;;;;;;;;4997107;28;20061;-58
2022/05/10 03:28:59;;;;;;;32.33;6.70;;;;;;;;;;4997243;28;20046;-58
2022/05/10 03:31:26;;;;;;;86.60;8.43;;;;;;;;;;4997000;28;20057;-57
2022/05/10 03:36:38;;;;;;;31.50;7.32;;;;;;;;;;4992201;28;20506;-58
2022/05/10 03:39:05;;;;;;;50.95;9.60;;;;;;;;;;4997152;28;20050;-57
2022/05/10 03:41:32;;;;;;;29.10;6.30;;;;;;;;;;4996896;28;20057;-58
2022/05/10 03:43:58;;;;;;;49.90;9.70;;;;;;;;;;4997347;28;20038;-57
2022/05/10 03:46:25;;;;;;;45.25;6.75;;;;;;;;;;4996335;28;20052;-58
2022/05/10 03:48:51;;;;;;;15.65;5.43;;;;;;;;;;4993275;28;20447;-58
2022/05/10 03:51:18;;;;;;;24.95;5.35;;;;;;;;;;4996666;28;20046;-58
2022/05/10 03:53:44;;;;;;;35.50;6.85;;;;;;;;;;4996824;28;20038;-58
2022/05/10 03:56:11;;;;;;;27.60;5.70;;;;;;;;;;4996733;28;20130;-58
2022/05/10 03:58:37;;;;;;;22.63;5.82;;;;;;;;;;4996959;28;20042;-58
2022/05/10 04:01:06;;;;;;;29.52;6.53;;;;;;;;;;4993289;28;20042;-58
2022/05/10 04:03:33;;;;;;;35.92;7.10;;;;;;;;;;4995524;28;20050;-57
2022/05/10 04:05:59;;;;;;;21.15;6.13;;;;;;;;;;4996730;28;20058;-58
2022/05/10 04:08:27;;;;;;;22.13;5.57;;;;;;;;;;4996601;28;20045;-58
2022/05/10 04:10:53;;;;;;;30.25;5.95;;;;;;;;;;4995950;28;20038;-58
2022/05/10 04:13:28;;;;;;;64.03;7.43;;;;;;;;;;4996798;28;20099;-58
2022/05/10 04:15:54;;;;;;;29.63;6.15;;;;;;;;;;4992621;28;20042;-57
2022/05/10 04:18:21;;;;;;;14.68;4.32;;;;;;;;;;4996422;28;20062;-58
2022/05/10 04:20:47;;;;;;;26.85;5.43;;;;;;;;;;4996402;28;20046;-58
2022/05/10 04:23:14;;;;;;;22.85;6.03;;;;;;;;;;4996258;28;20125;-57
2022/05/10 04:26:05;;;;;;;11.88;4.97;;;;;;;;;;4996572;28;20038;-57
2022/05/10 04:28:33;;;;;;;21.33;4.15;;;;;;;;;;4996252;28;20540;-58
2022/05/10 04:30:59;;;;;;;13.77;4.60;;;;;;;;;;4992332;28;20491;-58
2022/05/10 04:33:26;;;;;;;14.10;4.22;;;;;;;;;;4996229;28;20050;-58
2022/05/10 04:35:52;;;;;;;13.18;4.40;;;;;;;;;;4996203;28;20045;-58
2022/05/10 04:38:19;;;;;;;15.85;4.80;;;;;;;;;;4996584;28;20046;-58
2022/05/10 04:43:33;;;;;;;12.25;4.40;;;;;;;;;;4996202;28;20214;-58
2022/05/10 04:45:59;;;;;;;17.77;4.63;;;;;;;;;;4992438;28;20511;-58
2022/05/10 04:48:26;;;;;;;15.52;5.18;;;;;;;;;;4995945;28;20101;-58
2022/05/10 04:50:52;;;;;;;27.83;6.15;;;;;;;;;;4994371;28;20398;-58
2022/05/10 04:53:18;;;;;;;13.18;4.70;;;;;;;;;;4995739;28;20042;-59
2022/05/10 04:55:45;;;;;;;17.58;4.88;;;;;;;;;;4996256;28;20038;-58
2022/05/10 04:58:14;;;;;;;25.88;4.95;;;;;;;;;;4993744;28;20053;-58
2022/05/10 05:00:40;;;;;;;15.60;4.95;;;;;;;;;;4994211;28;20101;-58
2022/05/10 05:03:07;;;;;;;99.90;9.40;;;;;;;;;;4997008;28;20054;-58
2022/05/10 05:05:33;;;;;;;35.00;5.95;;;;;;;;;;4997822;28;20562;-61
2022/05/10 05:08:00;;;;;;;42.95;6.70;;;;;;;;;;4998825;28;20034;-57
2022/05/10 05:10:26;;;;;;;26.88;5.18;;;;;;;;;;4998782;28;20117;-58
2022/05/10 05:12:53;;;;;;;198.18;17.35;;;;;;;;;;4996581;28;20388;-58
2022/05/10 05:15:20;;;;;;;23.58;4.80;;;;;;;;;;4982142;28;20059;-58
2022/05/10 05:17:47;;;;;;;60.65;7.32;;;;;;;;;;4999313;28;20512;-58
2022/05/10 05:20:14;;;;;;;20.50;4.60;;;;;;;;;;4999763;28;20157;-58
2022/05/10 05:22:40;;;;;;;14.30;4.22;;;;;;;;;;4999868;28;20037;-58
2022/05/10 05:25:07;;;;;;;33.88;5.13;;;;;;;;;;4996680;28;20046;-58
2022/05/10 05:27:35;;;;;;;10.38;4.40;;;;;;;;;;4998343;28;20354;-58
2022/05/10 05:30:01;;;;;;;12.13;3.50;;;;;;;;;;4999619;28;20044;-59
2022/05/10 05:32:33;;;;;;;15.77;3.90;;;;;;;;;;4999281;28;20042;-58
2022/05/10 05:34:59;;;;;;;13.77;3.63;;;;;;;;;;4999554;28;20037;-58
2022/05/10 05:37:34;;;;;;;17.35;4.10;;;;;;;;;;4998804;28;20052;-58
2022/05/10 05:40:03;;;;;;;77.00;10.57;;;;;;;;;;4978103;28;20042;-58
2022/05/10 05:42:30;;;;;;;31.23;5.15;;;;;;;;;;4988841;28;20411;-58
2022/05/10 05:44:58;;;;;;;18.20;3.55;;;;;;;;;;4997621;28;20049;-58
2022/05/10 05:47:25;;;;;;;13.63;3.53;;;;;;;;;;4998706;28;20038;-58
2022/05/10 05:49:51;;;;;;;26.35;4.90;;;;;;;;;;4998430;28;20042;-58
2022/05/10 05:52:20;;;;;;;31.88;5.03;;;;;;;;;;4996237;28;20074;-58
2022/05/10 05:54:46;;;;;;;30.27;4.90;;;;;;;;;;4995216;28;20042;-58
2022/05/10 05:57:13;;;;;;;21.63;3.90;;;;;;;;;;4998194;28;20082;-56
2022/05/10 05:59:40;;;;;;;14.90;3.15;;;;;;;;;;4998729;28;20483;-64
2022/05/10 06:02:13;;;;;;;86.78;6.78;;;;;;;;;;4998732;28;20394;-64
2022/05/10 06:04:40;;;;;;;14.95;3.65;;;;;;;;;;4998434;28;20121;-64
2022/05/10 06:07:06;;;;;;;20.02;4.45;;;;;;;;;;4995177;28;20848;-62
2022/05/10 06:09:33;;;;;;;25.40;4.32;;;;;;;;;;4997144;28;20046;-66
2022/05/10 06:11:59;;;;;;;23.00;4.60;;;;;;;;;;4997835;28;20038;-62
2022/05/10 06:14:26;;;;;;;13.82;3.75;;;;;;;;;;4998340;28;20043;-57
2022/05/10 06:16:57;;;;;;;19.27;3.83;;;;;;;;;;4998626;28;20045;-58
2022/05/10 06:19:24;;;;;;;20.70;3.58;;;;;;;;;;4979611;28;20072;-58
2022/05/10 06:21:50;;;;;;;254.60;18.17;;;;;;;;;;4995741;28;20046;-58
2022/05/10 06:24:17;;;;;;;17.33;2.85;;;;;;;;;;4998275;28;20129;-58
2022/05/10 06:26:44;;;;;;;13.50;2.90;;;;;;;;;;4998178;28;20118;-59
2022/05/10 06:29:10;;;;;;;13.45;2.95;;;;;;;;;;4998443;28;20122;-59
2022/05/10 06:31:39;;;;;;;11.75;2.72;;;;;;;;;;4998464;28;20109;-59
2022/05/10 06:34:09;;;;;;;15.43;3.05;;;;;;;;;;4995062;28;20101;-59
2022/05/10 06:36:35;;;;;;;18.08;3.70;;;;;;;;;;4997364;28;20047;-59
2022/05/10 06:39:02;;;;;;;17.88;3.13;;;;;;;;;;4998337;28;20053;-58
2022/05/10 06:41:31;;;;;;;17.90;3.17;;;;;;;;;;4997689;28;20050;-59
2022/05/10 06:43:58;;;;;;;11.60;2.80;;;;;;;;;;4998194;28;20565;-58
2022/05/10 06:46:25;;;;;;;13.95;2.78;;;;;;;;;;4997280;28;20041;-58
2022/05/10 06:48:52;;;;;;;17.13;2.70;;;;;;;;;;4994671;28;20050;-59
2022/05/10 06:51:21;;;;;;;20.05;3.67;;;;;;;;;;4998054;28;20046;-59
2022/05/10 06:53:48;;;;;;;16.02;2.85;;;;;;;;;;4993640;28;20049;-59
2022/05/10 06:56:15;;;;;;;28.30;3.67;;;;;;;;;;4997001;28;20046;-66
2022/05/10 06:58:42;;;;;;;15.25;2.80;;;;;;;;;;4996409;28;20037;-67
2022/05/10 07:01:12;;;;;;;94.35;8.60;;;;;;;;;;4994528;28;20077;-65
2022/05/10 07:03:46;;;;;;;17.13;2.53;;;;;;;;;;4996592;28;20435;-64
2022/05/10 07:06:14;;;;;;;97.53;7.72;;;;;;;;;;4995389;28;20034;-72
2022/05/10 07:08:40;;;;;;;12.52;2.60;;;;;;;;;;4974859;28;20088;-57
2022/05/10 07:11:07;;;;;;;17.70;2.95;;;;;;;;;;4992889;28;20102;-61
2022/05/10 07:13:34;;;;;;;14.02;2.35;;;;;;;;;;4993435;28;20046;-62
2022/05/10 07:16:02;;;;;;;57.70;4.03;;;;;;;;;;4990299;28;20097;-60
2022/05/10 07:18:29;;;;;;;11.65;2.08;;;;;;;;;;4990358;28;20046;-61
2022/05/10 07:20:55;;;;;;;16.35;5.10;;;;;;;;;;4990916;28;20038;-64
2022/05/10 07:23:29;;;;;;;14.95;2.53;;;;;;;;;;4991247;28;20545;-62
2022/05/10 07:26:01;;;;;;;12.85;2.33;;;;;;;;;;4990378;28;20414;-63
2022/05/10 07:28:29;;;;;;;38.30;4.60;;;;;;;;;;4992782;28;20053;-68
2022/05/10 07:30:56;;;;;;;16.20;2.60;;;;;;;;;;4989775;28;20096;-61
2022/05/10 07:33:24;;;;;;;29.55;3.10;;;;;;;;;;4991409;28;20042;-65
2022/05/10 07:38:37;;;;;;;15.52;2.40;;;;;;;;;;4990958;28;20080;-65
2022/05/10 07:43:52;;;;;;;19.27;3.08;;;;;;;;;;5095588;23;20463;-68
2022/05/10 07:46:19;;;;;;;24.60;3.60;;;;;;;;;;4934777;29;20047;-66
2022/05/10 07:48:45;;;;;;;19.90;3.00;;;;;;;;;;4932815;29;20487;-58
2022/05/10 07:51:12;;;;;;;35.67;4.72;;;;;;;;;;4926885;29;20123;-56
2022/05/10 07:53:40;;;;;;;10.52;2.25;;;;;;;;;;4934066;29;20043;-58
2022/05/10 07:56:14;;;;;;;220.80;14.45;;;;;;;;;;4935359;29;20039;-60
2022/05/10 07:58:54;;;;;;;7.97;2.10;;;;;;;;;;4934726;29;20043;-59
2022/05/10 08:01:21;;;;;;;15.43;2.42;;;;;;;;;;4935339;29;20168;-57
2022/05/10 08:03:48;;;;;;;63.95;6.20;;;;;;;;;;4935232;29;20507;-58
2022/05/10 08:06:16;;;;;;;5.78;1.80;;;;;;;;;;4933657;29;20500;-57
2022/05/10 08:08:43;;;;;;;8.15;2.38;;;;;;;;;;4934937;29;20040;-57
2022/05/10 08:11:09;;;;;;;19.00;3.08;;;;;;;;;;4935035;29;20046;-57
2022/05/10 08:13:37;;;;;;;15.02;2.35;;;;;;;;;;4935206;29;20124;-59
2022/05/10 08:16:04;;;;;;;9.65;2.25;;;;;;;;;;4935226;29;20043;-59
2022/05/10 08:18:31;;;;;;;11.77;2.80;;;;;;;;;;4931890;29;20047;-59
2022/05/10 08:20:58;;;;;;;7.10;1.65;;;;;;;;;;4934299;29;20044;-59
2022/05/10 08:23:26;;;;;;;9.68;2.38;;;;;;;;;;4930495;29;20115;-58
2022/05/10 08:25:54;;;;;;;18.10;3.45;;;;;;;;;;4934556;29;20036;-69
2022/05/10 08:28:22;;;;;;;58.33;4.80;;;;;;;;;;4935148;29;20067;-57
2022/05/10 08:30:48;;;;;;;19.67;3.00;;;;;;;;;;4918386;29;20499;-62
2022/05/10 10:29:04;;;;;;;66.60;7.43;;;;;;;;;;5786003;23;20308;-60
2022/05/10 10:31:33;;;;;;;84.65;7.15;;;;;;;;;;4853445;29;20508;-74
2022/05/10 10:34:05;;;;;;;35.05;3.97;;;;;;;;;;4876672;29;20543;-68
2022/05/10 10:36:35;;;;;;;206.15;20.83;;;;;;;;;;4876735;29;20049;-64
2022/05/10 10:39:05;;;;;;;14.88;3.42;;;;;;;;;;4876726;29;20037;-63
2022/05/10 10:41:46;;;;;;;13.95;2.40;;;;;;;;;;4874861;29;20386;-66
2022/05/10 10:44:22;;;;;;;12.13;2.67;;;;;;;;;;4876162;29;20489;-71
2022/05/10 10:46:54;;;;;;;15.02;2.88;;;;;;;;;;4890204;29;20041;-69
2022/05/10 10:49:29;;;;;;;51.92;4.95;;;;;;;;;;4875650;29;20112;-71
2022/05/10 10:51:57;;;;;;;15.85;3.55;;;;;;;;;;4874927;29;20128;-67
2022/05/10 10:54:25;;;;;;;17.23;3.08;;;;;;;;;;4878325;29;20049;-67
2022/05/10 10:56:52;;;;;;;16.35;2.80;;;;;;;;;;4875162;29;20049;-70
2022/05/10 10:59:27;;;;;;;28.63;3.60;;;;;;;;;;4867503;29;20046;-65
2022/05/10 11:02:08;;;;;;;16.23;2.63;;;;;;;;;;4884750;29;20080;-70
2022/05/10 11:04:54;;;;;;;11.95;2.22;;;;;;;;;;4875199;29;20513;-79
2022/05/10 11:07:23;;;;;;;19.73;2.45;;;;;;;;;;4875716;29;20062;-58
2022/05/10 11:09:59;;;;;;;26.58;3.55;;;;;;;;;;4866816;29;20041;-58
2022/05/10 11:12:29;;;;;;;13.40;2.25;;;;;;;;;;4878677;29;20459;-58
2022/05/10 11:15:16;;;;;;;17.77;2.65;;;;;;;;;;4874499;29;20136;-57
2022/05/10 11:17:42;;;;;;;11.63;2.20;;;;;;;;;;4857927;29;20056;-58
2022/05/10 11:20:15;;;;;;;21.67;3.15;;;;;;;;;;4874128;29;20045;-58
2022/05/10 11:22:46;;;;;;;170.10;15.60;;;;;;;;;;4886203;29;20046;-57
2022/05/10 11:25:25;;;;;;;452.08;38.50;;;;;;;;;;4874648;29;20060;-58
2022/05/10 11:28:12;;;;;;;30.83;4.53;;;;;;;;;;4876377;29;20056;-57
2022/05/10 11:30:47;;;;;;;23.63;3.45;;;;;;;;;;4875054;29;20092;-68
2022/05/10 11:33:30;;;;;;;36.65;3.55;;;;;;;;;;4876534;29;20045;-67
2022/05/10 11:36:21;;;;;;;17.02;2.65;;;;;;;;;;4873969;29;20059;-71
2022/05/10 11:39:09;;;;;;;12.63;2.80;;;;;;;;;;4874503;29;20060;-60
2022/05/10 11:41:47;;;;;;;11.25;2.40;;;;;;;;;;4874298;29;20509;-53
2022/05/10 11:44:32;;;;;;;11.10;2.53;;;;;;;;;;4874502;29;20049;-67
2022/05/10 11:47:00;;;;;;;29.48;3.97;;;;;;;;;;4873584;29;20045;-59
2022/05/10 11:49:44;;;;;;;32.40;3.80;;;;;;;;;;4873773;29;20043;-60
2022/05/10 11:52:11;;;;;;;21.42;3.03;;;;;;;;;;4872878;29;20136;-62
2022/05/10 11:54:50;;;;;;;23.23;3.53;;;;;;;;;;4878207;29;20059;-62
2022/05/10 11:57:17;;;;;;;39.95;4.13;;;;;;;;;;4872368;29;20048;-64
2022/05/10 11:59:45;;;;;;;12.30;2.70;;;;;;;;;;4867906;29;20114;-59
2022/05/10 12:02:45;;;;;;;16.05;3.25;;;;;;;;;;4865934;29;20049;-58
2022/05/10 12:05:31;;;;;;;14.57;2.47;;;;;;;;;;4844366;29;20443;-57
2022/05/10 12:08:20;;;;;;;17.63;2.72;;;;;;;;;;4838591;29;20160;-57
2022/05/10 12:10:47;;;;;;;29.27;3.83;;;;;;;;;;4837877;29;20080;-75
2022/05/10 12:22:11;;;;;;;12.40;3.00;;;;;;;;;;4848671;29;20064;-76
2022/05/10 12:24:44;;;;;;;16.83;2.60;;;;;;;;;;4839834;29;20499;-76
2022/05/10 12:27:11;;;;;;;33.25;3.70;;;;;;;;;;4839342;29;20141;-76
2022/05/10 12:29:37;;;;;;;6.25;1.95;;;;;;;;;;4840007;29;20093;-76
2022/05/10 12:32:04;;;;;;;11.82;2.20;;;;;;;;;;4835489;29;20042;-76
2022/05/10 12:34:37;;;;;;;31.27;4.30;;;;;;;;;;4835944;29;20180;-76
2022/05/10 12:37:30;;;;;;;12.53;2.10;;;;;;;;;;4837356;29;20128;-76
2022/05/10 12:39:59;;;;;;;8.07;1.88;;;;;;;;;;4840735;29;20337;-75
2022/05/10 12:42:45;;;;;;;13.85;3.47;;;;;;;;;;4866013;29;20053;-75
2022/05/10 12:45:14;;;;;;;9.25;2.30;;;;;;;;;;4875105;29;20053;-75
2022/05/10 12:47:41;;;;;;;14.70;2.83;;;;;;;;;;4873236;29;20093;-75
2022/05/10 12:50:18;;;;;;;9.50;2.00;;;;;;;;;;4873589;29;20059;-74
2022/05/10 12:52:47;;;;;;;77.72;9.00;;;;;;;;;;4868367;29;20141;-76
2022/05/10 12:55:24;;;;;;;226.75;16.42;;;;;;;;;;4873636;29;20053;-76
2022/05/10 12:58:02;;;;;;;26.23;3.83;;;;;;;;;;4869469;29;20052;-76
2022/05/10 13:00:35;;;;;;;356.38;30.50;;;;;;;;;;4868348;29;20098;-75
2022/05/10 13:03:12;;;;;;;15.50;2.70;;;;;;;;;;4873502;29;20509;-76
2022/05/10 13:05:46;;;;;;;23.75;3.20;;;;;;;;;;4871029;29;20060;-76
2022/05/10 13:08:13;;;;;;;16.67;3.03;;;;;;;;;;4873176;29;20044;-75
2022/05/10 13:10:40;;;;;;;11.00;2.28;;;;;;;;;;4872619;29;20073;-75
2022/05/10 13:13:21;;;;;;;13.82;2.78;;;;;;;;;;4874308;29;20045;-75
2022/05/10 13:15:57;;;;;;;21.50;2.92;;;;;;;;;;4873989;29;20491;-76
2022/05/10 13:18:25;;;;;;;83.88;9.35;;;;;;;;;;4870093;29;20479;-76
2022/05/10 13:20:53;;;;;;;18.00;2.47;;;;;;;;;;4871640;29;20048;-76
2022/05/10 13:23:25;;;;;;;26.77;3.25;;;;;;;;;;4871890;29;20061;-76
2022/05/10 13:25:51;;;;;;;9.77;2.00;;;;;;;;;;4877542;29;20072;-75
2022/05/10 13:28:19;;;;;;;12.68;2.10;;;;;;;;;;4877508;29;20045;-76
2022/05/10 13:30:48;;;;;;;14.50;3.17;;;;;;;;;;4879162;29;20085;-76
2022/05/10 13:33:25;;;;;;;42.13;4.03;;;;;;;;;;4879236;29;20037;-76
2022/05/10 13:35:54;;;;;;;26.50;3.47;;;;;;;;;;4876915;29;20080;-76
2022/05/10 13:38:33;;;;;;;12.07;2.65;;;;;;;;;;4854518;29;20075;-76
2022/05/10 13:41:11;;;;;;;12.40;3.90;;;;;;;;;;4869123;29;20056;-76
2022/05/10 13:43:49;;;;;;;25.25;3.08;;;;;;;;;;4877269;29;20040;-76
2022/05/10 13:46:17;;;;;;;74.05;6.05;;;;;;;;;;4876986;29;20038;-75
2022/05/10 13:48:48;;;;;;;42.78;5.20;;;;;;;;;;4880091;29;20056;-75
2022/05/10 13:51:15;;;;;;;20.90;3.47;;;;;;;;;;4878871;29;20569;-75
2022/05/10 13:53:42;;;;;;;10.63;2.40;;;;;;;;;;4877106;29;20052;-75
2022/05/10 13:56:11;;;;;;;21.05;3.10;;;;;;;;;;4869559;29;20397;-76
2022/05/10 13:58:39;;;;;;;24.15;3.85;;;;;;;;;;4862943;29;20053;-75
2022/05/10 14:01:07;;;;;;;43.97;4.60;;;;;;;;;;4865928;29;20132;-75
2022/05/10 14:03:38;;;;;;;17.42;3.42;;;;;;;;;;4874418;29;20057;-75
2022/05/10 14:06:07;;;;;;;615.10;61.63;;;;;;;;;;4876684;29;20128;-75
2022/05/10 14:08:38;;;;;;;28.48;3.72;;;;;;;;;;4868498;29;20053;-75
2022/05/10 14:11:11;;;;;;;133.93;10.55;;;;;;;;;;4870065;29;20061;-75
2022/05/10 14:13:49;;;;;;;28.58;4.15;;;;;;;;;;4876613;29;20598;-75
2022/05/10 14:16:29;;;;;;;12.63;1.90;;;;;;;;;;4876482;29;20121;-75
2022/05/10 14:18:56;;;;;;;25.67;3.38;;;;;;;;;;4892544;29;20101;-75
2022/05/10 14:21:29;;;;;;;107.80;11.35;;;;;;;;;;4880253;29;20037;-75
2022/05/10 14:23:56;;;;;;;29.13;3.47;;;;;;;;;;4876464;29;20101;-75
2022/05/10 14:26:23;;;;;;;22.02;2.28;;;;;;;;;;4876396;29;20049;-75
2022/05/10 14:28:54;;;;;;;21.88;2.97;;;;;;;;;;4875791;29;20060;-75
2022/05/10 14:31:29;;;;;;;17.15;2.03;;;;;;;;;;4876305;29;20399;-75
2022/05/10 14:33:56;;;;;;;36.83;4.07;;;;;;;;;;4876428;29;20447;-73
2022/05/10 14:36:25;;;;;;;66.43;6.20;;;;;;;;;;4875333;29;20045;-73
2022/05/10 14:38:52;;;;;;;19.38;2.75;;;;;;;;;;4875365;29;20105;-73
2022/05/10 14:41:39;;;;;;;17.55;3.00;;;;;;;;;;4876257;29;20075;-73
2022/05/10 14:44:12;;;;;;;138.75;10.93;;;;;;;;;;4874590;29;20064;-73
2022/05/10 14:46:46;;;;;;;20.60;3.30;;;;;;;;;;4874345;29;20065;-73
2022/05/10 14:49:12;;;;;;;21.10;3.08;;;;;;;;;;4873982;29;20094;-75
2022/05/10 14:51:46;;;;;;;16.88;2.92;;;;;;;;;;4879101;29;20048;-75
2022/05/10 14:54:13;;;;;;;28.63;3.40;;;;;;;;;;4874855;29;20128;-75
2022/05/10 14:56:49;;;;;;;194.18;14.75;;;;;;;;;;4874777;29;20041;-74
2022/05/10 14:59:48;;;;;;;38.92;3.97;;;;;;;;;;4862550;29;20129;-74
2022/05/10 15:02:28;;;;;;;9.15;2.35;;;;;;;;;;4868797;29;20562;-74
2022/05/10 15:04:56;;;;;;;35.05;3.30;;;;;;;;;;4874185;29;20125;-74
2022/05/10 15:07:23;;;;;;;109.47;8.50;;;;;;;;;;4875469;29;20047;-75
2022/05/10 15:09:49;;;;;;;28.25;3.75;;;;;;;;;;4878420;29;20144;-66
2022/05/10 15:15:12;;;;;;;97.70;9.90;;;;;;;;;;4858451;29;20056;-66
2022/05/10 15:18:58;;;;;;;50.78;5.40;;;;;;;;;;4857031;29;20842;-66
2022/05/10 15:20:37;;;;;;;20.13;2.80;;;;;;;;;;4856808;29;20061;-67
2022/05/10 15:23:04;;;;;;;36.47;4.45;;;;;;;;;;4857849;29;20168;-67
2022/05/10 15:25:30;;;;;;;17.70;2.60;;;;;;;;;;4858124;29;20063;-66
2022/05/10 15:27:59;;;;;;;27.10;3.67;;;;;;;;;;4856738;29;20516;-65
2022/05/10 15:30:26;;;;;;;33.03;4.43;;;;;;;;;;4856108;29;20073;-66
2022/05/10 15:32:53;;;;;;;34.45;3.85;;;;;;;;;;4855582;29;20061;-66
2022/05/10 15:35:20;;;;;;;28.60;3.17;;;;;;;;;;4857291;29;20053;-66
2022/05/10 15:37:46;;;;;;;23.10;3.00;;;;;;;;;;4856385;29;20081;-66
2022/05/10 15:40:14;;;;;;;68.97;6.65;;;;;;;;;;4854101;29;20615;-66
2022/05/10 15:42:41;;;;;;;18.00;2.60;;;;;;;;;;4858258;29;20498;-66
2022/05/10 15:45:08;;;;;;;24.45;2.83;;;;;;;;;;4854740;29;20050;-65
2022/05/10 15:47:38;;;;;;;30.48;3.35;;;;;;;;;;4852987;29;20052;-66
2022/05/10 15:50:06;;;;;;;167.93;12.10;;;;;;;;;;4857104;29;20089;-66
2022/05/10 15:52:33;;;;;;;28.92;3.05;;;;;;;;;;4867999;29;20529;-65
2022/05/10 15:55:00;;;;;;;389.35;31.30;;;;;;;;;;4875854;29;20406;-66
2022/05/10 15:57:27;;;;;;;174.70;11.40;;;;;;;;;;4870310;29;20074;-66
2022/05/10 15:59:55;;;;;;;54.10;5.38;;;;;;;;;;4872881;29;20410;-66
2022/05/10 16:02:22;;;;;;;67.20;5.18;;;;;;;;;;4869210;29;20056;-66
2022/05/10 16:04:53;;;;;;;75.10;8.18;;;;;;;;;;4873856;29;20124;-66
2022/05/10 16:07:20;;;;;;;46.45;9.73;;;;;;;;;;4873948;29;20045;-65
2022/05/10 16:09:47;;;;;;;99.90;8.75;;;;;;;;;;4877615;29;20051;-65
2022/05/10 16:12:13;;;;;;;190.43;14.90;;;;;;;;;;4874052;29;20057;-66
2022/05/10 16:14:40;;;;;;;63.40;4.82;;;;;;;;;;4873788;29;20045;-66
2022/05/10 16:17:06;;;;;;;13.30;2.17;;;;;;;;;;4874274;29;20057;-65
2022/05/10 16:19:53;;;;;;;28.48;3.78;;;;;;;;;;4873139;29;20043;-66
2022/05/10 16:22:20;;;;;;;128.05;8.60;;;;;;;;;;4870691;29;20034;-66
2022/05/10 16:24:46;;;;;;;30.63;3.95;;;;;;;;;;4877248;29;20132;-66
2022/05/10 16:29:58;;;;;;;216.23;14.63;;;;;;;;;;4870107;29;20514;-66
2022/05/10 16:32:29;;;;;;;112.22;7.95;;;;;;;;;;4870644;29;20124;-65
2022/05/10 16:34:56;;;;;;;44.17;5.03;;;;;;;;;;4869144;29;20037;-66
2022/05/10 16:37:24;;;;;;;87.32;8.13;;;;;;;;;;4869038;29;20045;-64
2022/05/10 16:39:51;;;;;;;119.15;10.23;;;;;;;;;;4866282;29;20095;-65
2022/05/10 16:42:18;;;;;;;82.53;6.75;;;;;;;;;;4869489;29;20045;-73
2022/05/10 16:44:45;;;;;;;80.25;6.38;;;;;;;;;;4871420;29;20123;-65
2022/05/10 16:47:14;;;;;;;33.33;4.72;;;;;;;;;;4871455;29;20045;-67
2022/05/10 16:49:47;;;;;;;183.50;15.07;;;;;;;;;;4868848;29;20068;-67
2022/05/10 16:52:14;;;;;;;158.00;12.77;;;;;;;;;;4869439;29;20041;-65
2022/05/10 16:54:42;;;;;;;225.80;17.40;;;;;;;;;;4868561;29;20136;-68
2022/05/10 16:57:09;;;;;;;86.80;9.73;;;;;;;;;;4867812;29;20038;-67
2022/05/10 16:59:36;;;;;;;85.70;8.15;;;;;;;;;;4873575;29;20135;-67
2022/05/10 17:02:07;;;;;;;91.32;9.15;;;;;;;;;;4874107;29;20207;-67
2022/05/10 17:04:39;;;;;;;189.07;17.80;;;;;;;;;;4868878;29;20700;-67
2022/05/10 17:07:10;;;;;;;193.35;16.15;;;;;;;;;;4872370;29;20121;-67
2022/05/10 17:09:37;;;;;;;129.52;8.20;;;;;;;;;;4875352;29;20045;-68
2022/05/10 17:12:04;;;;;;;212.65;16.90;;;;;;;;;;4872950;29;20498;-68